createdAt,value
2018-05-15T00:00:11.938Z,62.86
2018-05-15T00:01:14.415Z,62.88
2018-05-15T00:02:16.891Z,62.83
2018-05-15T00:03:19.362Z,62.76
2018-05-15T00:04:21.850Z,62.75
2018-05-15T00:05:24.325Z,62.74
2018-05-15T00:06:26.803Z,62.75
2018-05-15T00:07:29.277Z,62.69
2018-05-15T00:08:31.755Z,62.64
2018-05-15T00:09:34.251Z,62.61
2018-05-15T00:10:36.723Z,62.65
2018-05-15T00:11:39.198Z,62.62
2018-05-15T00:12:41.675Z,62.60
2018-05-15T00:13:44.143Z,62.59
2018-05-15T00:14:46.643Z,62.56
2018-05-15T00:15:49.118Z,62.58
2018-05-15T00:16:51.593Z,62.58
2018-05-15T00:17:54.070Z,62.59
2018-05-15T00:18:56.547Z,62.57
2018-05-15T00:19:59.035Z,62.53
2018-05-15T00:21:01.511Z,62.50
2018-05-15T00:22:03.986Z,62.46
2018-05-15T00:23:06.469Z,62.44
2018-05-15T00:24:08.951Z,62.50
2018-05-15T00:25:11.503Z,62.56
2018-05-15T00:26:14.004Z,62.58
2018-05-15T00:27:16.486Z,62.55
2018-05-15T00:28:18.952Z,62.50
2018-05-15T00:29:21.428Z,62.51
2018-05-15T00:30:23.914Z,62.46
2018-05-15T00:31:26.390Z,62.40
2018-05-15T00:32:28.866Z,62.38
2018-05-15T00:33:31.336Z,62.37
2018-05-15T00:34:33.806Z,62.39
2018-05-15T00:35:36.301Z,62.38
2018-05-15T00:36:38.772Z,62.38
2018-05-15T00:37:41.238Z,62.36
2018-05-15T00:38:43.707Z,62.27
2018-05-15T00:39:46.186Z,62.36
2018-05-15T00:40:48.668Z,62.35
2018-05-15T00:41:51.163Z,62.32
2018-05-15T00:42:53.640Z,62.29
2018-05-15T00:43:56.110Z,62.29
2018-05-15T00:44:58.579Z,62.32
2018-05-15T00:46:01.068Z,62.31
2018-05-15T00:47:03.539Z,62.31
2018-05-15T00:48:06.013Z,62.29
2018-05-15T00:49:08.561Z,62.32
2018-05-15T00:50:11.072Z,62.38
2018-05-15T00:51:13.634Z,62.51
2018-05-15T00:52:16.144Z,62.59
2018-05-15T00:53:18.638Z,62.65
2018-05-15T00:54:21.133Z,62.67
2018-05-15T00:55:35.490Z,62.68
2018-05-15T00:56:37.975Z,62.72
2018-05-15T00:57:40.461Z,62.71
2018-05-15T00:58:42.938Z,62.74
2018-05-15T00:59:45.429Z,62.79
2018-05-15T01:00:47.939Z,62.84
2018-05-15T01:01:50.447Z,62.84
2018-05-15T01:02:52.949Z,62.83
2018-05-15T01:03:55.437Z,62.90
2018-05-15T01:04:57.925Z,62.92
2018-05-15T01:06:00.412Z,62.93
2018-05-15T01:07:02.926Z,62.92
2018-05-15T01:08:05.417Z,62.96
2018-05-15T01:09:07.909Z,62.94
2018-05-15T01:10:10.412Z,62.98
2018-05-15T01:11:12.888Z,63.00
2018-05-15T01:12:15.411Z,62.98
2018-05-15T01:13:18.005Z,62.99
2018-05-15T01:14:20.489Z,63.00
2018-05-15T01:15:22.987Z,63.01
2018-05-15T01:16:25.461Z,63.02
2018-05-15T01:17:27.973Z,63.06
2018-05-15T01:18:30.443Z,63.15
2018-05-15T01:19:32.964Z,63.18
2018-05-15T01:20:35.441Z,63.16
2018-05-15T01:21:37.941Z,63.18
2018-05-15T01:22:40.430Z,63.21
2018-05-15T01:23:42.917Z,63.23
2018-05-15T01:24:45.404Z,63.32
2018-05-15T01:25:47.909Z,63.33
2018-05-15T01:26:50.421Z,63.31
2018-05-15T01:27:52.940Z,63.32
2018-05-15T01:28:55.439Z,63.32
2018-05-15T01:29:57.929Z,63.38
2018-05-15T01:31:00.406Z,63.45
2018-05-15T01:32:02.882Z,63.40
2018-05-15T01:33:05.395Z,63.37
2018-05-15T01:34:07.885Z,63.38
2018-05-15T01:35:10.367Z,63.34
2018-05-15T01:36:12.854Z,63.35
2018-05-15T01:37:15.339Z,63.36
2018-05-15T01:38:17.849Z,63.36
2018-05-15T01:39:20.357Z,63.39
2018-05-15T01:40:22.864Z,63.39
2018-05-15T01:41:25.371Z,63.40
2018-05-15T01:42:27.888Z,63.41
2018-05-15T01:43:30.423Z,63.41
2018-05-15T01:44:32.921Z,63.45
2018-05-15T01:45:35.398Z,63.41
2018-05-15T01:46:37.893Z,63.42
2018-05-15T01:47:40.362Z,63.44
2018-05-15T01:48:42.888Z,63.47
2018-05-15T01:49:45.373Z,63.46
2018-05-15T01:50:47.860Z,63.42
2018-05-15T01:51:50.356Z,63.43
2018-05-15T01:52:52.843Z,63.50
2018-05-15T01:53:55.367Z,63.54
2018-05-15T01:54:57.860Z,63.51
2018-05-15T01:56:00.358Z,63.52
2018-05-15T01:57:02.867Z,63.53
2018-05-15T01:58:05.375Z,63.51
2018-05-15T01:59:07.876Z,63.51
2018-05-15T02:00:10.400Z,63.49
2018-05-15T02:01:12.927Z,63.51
2018-05-15T02:02:15.417Z,63.51
2018-05-15T02:03:17.931Z,63.49
2018-05-15T02:04:20.439Z,63.48
2018-05-15T02:05:22.947Z,63.51
2018-05-15T02:06:25.445Z,63.53
2018-05-15T02:07:27.937Z,63.50
2018-05-15T02:08:30.443Z,63.53
2018-05-15T02:09:32.949Z,63.55
2018-05-15T02:10:35.453Z,63.53
2018-05-15T02:11:37.945Z,63.49
2018-05-15T02:12:40.439Z,63.45
2018-05-15T02:13:42.944Z,63.36
2018-05-15T02:14:45.452Z,63.55
2018-05-15T02:15:47.941Z,63.52
2018-05-15T02:16:50.414Z,63.59
2018-05-15T02:17:52.906Z,63.62
2018-05-15T02:18:55.497Z,63.69
2018-05-15T02:19:57.988Z,63.68
2018-05-15T02:21:00.481Z,63.66
2018-05-15T02:22:02.979Z,63.69
2018-05-15T02:23:05.487Z,63.76
2018-05-15T02:24:07.980Z,63.83
2018-05-15T02:25:10.553Z,63.79
2018-05-15T02:26:13.040Z,63.76
2018-05-15T02:27:15.540Z,63.80
2018-05-15T02:28:18.048Z,63.86
2018-05-15T02:29:20.537Z,63.81
2018-05-15T02:30:23.092Z,63.79
2018-05-15T02:31:25.563Z,63.74
2018-05-15T02:32:28.061Z,63.76
2018-05-15T02:33:30.551Z,63.72
2018-05-15T02:34:33.063Z,63.73
2018-05-15T02:35:35.655Z,63.68
2018-05-15T02:36:38.160Z,63.63
2018-05-15T02:37:40.650Z,63.58
2018-05-15T02:38:43.141Z,63.63
2018-05-15T02:39:45.638Z,63.59
2018-05-15T02:40:48.155Z,63.57
2018-05-15T02:41:50.649Z,63.58
2018-05-15T02:42:53.138Z,63.69
2018-05-15T02:43:55.615Z,63.71
2018-05-15T02:44:58.127Z,63.71
2018-05-15T02:46:00.641Z,63.70
2018-05-15T02:47:03.112Z,63.72
2018-05-15T02:48:05.645Z,63.76
2018-05-15T02:49:08.135Z,63.77
2018-05-15T02:50:10.644Z,63.81
2018-05-15T02:51:13.287Z,63.79
2018-05-15T02:52:15.791Z,63.83
2018-05-15T02:53:18.300Z,63.81
2018-05-15T02:54:20.809Z,63.87
2018-05-15T02:55:23.295Z,63.91
2018-05-15T02:56:25.840Z,63.93
2018-05-15T02:57:28.326Z,63.96
2018-05-15T02:58:30.827Z,63.96
2018-05-15T02:59:33.315Z,63.97
2018-05-15T03:00:37.211Z,64.03
2018-05-15T03:01:40.178Z,63.99
2018-05-15T03:02:43.135Z,63.95
2018-05-15T03:03:45.654Z,63.94
2018-05-15T03:04:48.478Z,63.98
2018-05-15T03:05:51.015Z,63.93
2018-05-15T03:06:53.540Z,63.93
2018-05-15T03:07:56.058Z,63.92
2018-05-15T03:08:58.535Z,63.89
2018-05-15T03:10:01.024Z,63.86
2018-05-15T03:11:03.539Z,63.86
2018-05-15T03:12:06.064Z,63.84
2018-05-15T03:13:08.590Z,63.86
2018-05-15T03:14:11.091Z,63.85
2018-05-15T03:15:13.596Z,63.82
2018-05-15T03:16:16.090Z,63.81
2018-05-15T03:17:18.619Z,63.80
2018-05-15T03:18:21.109Z,63.84
2018-05-15T03:19:23.586Z,63.92
2018-05-15T03:20:26.088Z,63.95
2018-05-15T03:21:28.575Z,63.95
2018-05-15T03:22:31.099Z,63.91
2018-05-15T03:23:33.593Z,63.89
2018-05-15T03:24:36.084Z,63.88
2018-05-15T03:25:38.556Z,63.86
2018-05-15T03:26:41.045Z,63.86
2018-05-15T03:27:43.549Z,63.91
2018-05-15T03:28:46.056Z,63.96
2018-05-15T03:29:48.549Z,63.93
2018-05-15T03:30:51.060Z,63.95
2018-05-15T03:31:53.651Z,63.94
2018-05-15T03:32:56.123Z,63.93
2018-05-15T03:33:58.608Z,63.89
2018-05-15T03:35:01.112Z,63.92
2018-05-15T03:36:03.615Z,63.93
2018-05-15T03:37:06.093Z,63.93
2018-05-15T03:38:08.586Z,63.90
2018-05-15T03:39:11.080Z,63.85
2018-05-15T03:40:13.725Z,63.84
2018-05-15T03:41:16.235Z,63.81
2018-05-15T03:42:18.789Z,63.81
2018-05-15T03:43:21.286Z,63.82
2018-05-15T03:44:23.773Z,63.79
2018-05-15T03:45:26.254Z,63.86
2018-05-15T03:46:28.749Z,63.85
2018-05-15T03:47:31.247Z,63.80
2018-05-15T03:48:33.767Z,63.76
2018-05-15T03:49:36.272Z,63.82
2018-05-15T03:50:38.766Z,63.78
2018-05-15T03:51:41.243Z,63.77
2018-05-15T03:52:43.739Z,63.76
2018-05-15T03:53:46.234Z,63.80
2018-05-15T03:54:48.760Z,63.82
2018-05-15T03:55:51.254Z,63.80
2018-05-15T03:56:53.729Z,63.81
2018-05-15T03:57:56.439Z,63.79
2018-05-15T03:58:58.944Z,63.76
2018-05-15T04:00:01.432Z,63.79
2018-05-15T04:01:15.926Z,63.82
2018-05-15T04:02:30.121Z,63.77
2018-05-15T04:03:44.547Z,63.79
2018-05-15T04:04:59.029Z,63.85
2018-05-15T04:06:13.319Z,63.86
2018-05-15T04:07:27.603Z,63.89
2018-05-15T04:08:30.079Z,63.87
2018-05-15T04:09:32.572Z,63.97
2018-05-15T04:10:35.058Z,63.99
2018-05-15T04:11:37.532Z,63.92
2018-05-15T04:12:40.012Z,63.99
2018-05-15T04:13:42.482Z,63.99
2018-05-15T04:14:44.982Z,64.01
2018-05-15T04:15:47.478Z,63.98
2018-05-15T04:16:49.946Z,64.07
2018-05-15T04:17:52.432Z,64.04
2018-05-15T04:18:54.932Z,64.01
2018-05-15T04:19:57.438Z,64.00
2018-05-15T04:20:59.959Z,64.05
2018-05-15T04:22:02.447Z,64.12
2018-05-15T04:23:04.934Z,64.08
2018-05-15T04:24:07.444Z,64.10
2018-05-15T04:25:09.951Z,64.13
2018-05-15T04:26:12.444Z,64.17
2018-05-15T04:27:14.937Z,64.22
2018-05-15T04:28:17.492Z,64.21
2018-05-15T04:29:19.929Z,64.28
2018-05-15T04:30:22.406Z,64.27
2018-05-15T04:31:24.933Z,64.42
2018-05-15T04:32:27.407Z,64.33
2018-05-15T04:33:29.882Z,64.30
2018-05-15T04:34:32.364Z,64.27
2018-05-15T04:35:34.857Z,64.23
2018-05-15T04:36:37.346Z,64.21
2018-05-15T04:37:39.964Z,64.19
2018-05-15T04:38:42.456Z,64.20
2018-05-15T04:39:44.963Z,64.31
2018-05-15T04:40:47.448Z,64.31
2018-05-15T04:41:49.987Z,64.30
2018-05-15T04:42:52.477Z,64.29
2018-05-15T04:43:55.016Z,64.27
2018-05-15T04:44:57.455Z,64.24
2018-05-15T04:45:59.965Z,64.25
2018-05-15T04:47:02.506Z,64.29
2018-05-15T04:48:04.986Z,64.28
2018-05-15T04:49:07.476Z,64.33
2018-05-15T04:50:09.974Z,64.32
2018-05-15T04:51:12.461Z,64.32
2018-05-15T04:52:14.989Z,64.33
2018-05-15T04:53:17.478Z,64.31
2018-05-15T04:54:19.972Z,64.32
2018-05-15T04:55:22.483Z,64.34
2018-05-15T04:56:24.970Z,64.40
2018-05-15T04:57:27.492Z,64.40
2018-05-15T04:58:30.011Z,64.41
2018-05-15T04:59:32.538Z,64.41
2018-05-15T05:00:35.028Z,64.47
2018-05-15T05:01:37.521Z,64.47
2018-05-15T05:02:40.056Z,64.50
2018-05-15T05:03:42.556Z,64.46
2018-05-15T05:04:45.118Z,64.47
2018-05-15T05:05:47.595Z,64.57
2018-05-15T05:06:50.077Z,64.63
2018-05-15T05:07:52.615Z,64.79
2018-05-15T05:08:55.109Z,64.75
2018-05-15T05:09:57.600Z,64.23
2018-05-15T05:11:00.097Z,64.47
2018-05-15T05:12:02.588Z,64.42
2018-05-15T05:13:05.109Z,63.94
2018-05-15T05:14:07.610Z,63.83
2018-05-15T05:15:10.181Z,63.57
2018-05-15T05:16:12.684Z,63.53
2018-05-15T05:17:15.181Z,62.85
2018-05-15T05:18:17.698Z,62.75
2018-05-15T05:19:20.197Z,62.95
2018-05-15T05:20:22.696Z,62.97
2018-05-15T05:21:25.176Z,62.40
2018-05-15T05:22:27.650Z,61.81
2018-05-15T05:23:30.146Z,61.72
2018-05-15T05:24:32.692Z,61.60
2018-05-15T05:25:35.184Z,61.39
2018-05-15T05:26:37.753Z,57.31
2018-05-15T05:27:40.221Z,54.67
2018-05-15T05:28:42.769Z,51.96
2018-05-15T05:29:45.283Z,51.96
2018-05-15T05:30:47.766Z,52.18
2018-05-15T05:31:50.297Z,52.99
2018-05-15T05:32:52.801Z,52.68
2018-05-15T05:33:55.290Z,51.61
2018-05-15T05:34:57.777Z,49.81
2018-05-15T05:36:00.271Z,47.91
2018-05-15T05:37:02.779Z,46.28
2018-05-15T05:38:05.300Z,46.00
2018-05-15T05:39:07.822Z,45.58
2018-05-15T05:40:10.391Z,45.85
2018-05-15T05:41:12.877Z,45.71
2018-05-15T05:42:15.367Z,45.73
2018-05-15T05:43:17.896Z,44.57
2018-05-15T05:44:20.410Z,44.81
2018-05-15T05:45:22.917Z,44.69
2018-05-15T05:46:25.477Z,44.48
2018-05-15T05:47:27.973Z,44.22
2018-05-15T05:48:30.475Z,44.08
2018-05-15T05:49:32.991Z,44.30
2018-05-15T05:50:35.564Z,44.32
2018-05-15T05:51:38.056Z,43.79
2018-05-15T05:52:40.522Z,43.26
2018-05-15T05:53:43.049Z,43.08
2018-05-15T05:54:45.591Z,42.96
2018-05-15T05:55:48.062Z,42.82
2018-05-15T05:56:50.580Z,42.61
2018-05-15T05:57:53.055Z,42.65
2018-05-15T05:58:55.545Z,42.79
2018-05-15T05:59:58.058Z,43.00
2018-05-15T06:01:00.596Z,43.22
2018-05-15T06:02:03.102Z,43.30
2018-05-15T06:03:05.570Z,43.35
2018-05-15T06:04:08.075Z,43.29
2018-05-15T06:05:10.603Z,43.25
2018-05-15T06:06:13.098Z,43.23
2018-05-15T06:07:15.600Z,43.31
2018-05-15T06:08:18.097Z,43.26
2018-05-15T06:09:20.596Z,43.28
2018-05-15T06:10:23.144Z,43.40
2018-05-15T06:11:25.651Z,43.27
2018-05-15T06:12:28.155Z,43.27
2018-05-15T06:13:30.651Z,42.78
2018-05-15T06:14:33.154Z,42.66
2018-05-15T06:15:35.680Z,42.53
2018-05-15T06:16:38.162Z,42.62
2018-05-15T06:17:40.635Z,42.55
2018-05-15T06:18:43.151Z,42.66
2018-05-15T06:19:45.645Z,42.88
2018-05-15T06:20:48.188Z,43.00
2018-05-15T06:21:50.674Z,42.90
2018-05-15T06:22:53.227Z,42.79
2018-05-15T06:23:55.725Z,42.79
2018-05-15T06:24:58.240Z,42.73
2018-05-15T06:26:00.745Z,42.93
2018-05-15T06:27:03.273Z,43.00
2018-05-15T06:28:05.746Z,43.23
2018-05-15T06:29:08.228Z,43.14
2018-05-15T06:30:10.735Z,43.24
2018-05-15T06:31:13.245Z,43.16
2018-05-15T06:32:15.814Z,43.33
2018-05-15T06:33:18.277Z,43.52
2018-05-15T06:34:20.750Z,43.79
2018-05-15T06:35:23.241Z,43.97
2018-05-15T06:36:25.761Z,44.13
2018-05-15T06:37:28.253Z,44.20
2018-05-15T06:38:30.813Z,44.28
2018-05-15T06:39:33.293Z,44.28
2018-05-15T06:40:35.778Z,44.41
2018-05-15T06:41:38.293Z,44.47
2018-05-15T06:42:40.789Z,44.50
2018-05-15T06:43:43.282Z,44.51
2018-05-15T06:44:45.818Z,44.73
2018-05-15T06:45:48.319Z,44.82
2018-05-15T06:46:50.809Z,44.73
2018-05-15T06:47:53.287Z,44.63
2018-05-15T06:48:55.775Z,44.63
2018-05-15T06:49:58.269Z,44.51
2018-05-15T06:51:00.742Z,44.67
2018-05-15T06:52:03.249Z,43.99
2018-05-15T06:53:05.726Z,44.15
2018-05-15T06:54:08.225Z,44.21
2018-05-15T06:55:10.709Z,44.35
2018-05-15T06:56:13.210Z,43.89
2018-05-15T06:57:15.733Z,44.00
2018-05-15T06:58:18.233Z,44.19
2018-05-15T06:59:20.742Z,44.51
2018-05-15T07:00:23.234Z,44.71
2018-05-15T07:01:25.747Z,45.13
2018-05-15T07:02:28.252Z,45.24
2018-05-15T07:03:30.745Z,45.49
2018-05-15T07:04:33.247Z,45.74
2018-05-15T07:05:35.761Z,45.90
2018-05-15T07:06:38.276Z,46.00
2018-05-15T07:07:40.869Z,46.05
2018-05-15T07:08:43.299Z,46.16
2018-05-15T07:09:45.788Z,46.24
2018-05-15T07:10:48.297Z,46.36
2018-05-15T07:11:50.791Z,46.40
2018-05-15T07:12:53.313Z,46.48
2018-05-15T07:13:56.260Z,46.62
2018-05-15T07:14:58.743Z,46.70
2018-05-15T07:16:01.231Z,46.79
2018-05-15T07:17:03.717Z,46.83
2018-05-15T07:18:06.240Z,46.94
2018-05-15T07:19:08.819Z,47.04
2018-05-15T07:20:11.290Z,47.18
2018-05-15T07:21:13.824Z,47.20
2018-05-15T07:22:16.299Z,47.22
2018-05-15T07:23:18.808Z,47.19
2018-05-15T07:24:21.306Z,47.23
2018-05-15T07:25:23.816Z,47.31
2018-05-15T07:26:26.333Z,47.34
2018-05-15T07:27:28.891Z,47.29
2018-05-15T07:28:31.379Z,47.28
2018-05-15T07:29:33.866Z,47.34
2018-05-15T07:30:36.381Z,47.38
2018-05-15T07:31:38.960Z,47.87
2018-05-15T07:32:41.406Z,48.36
2018-05-15T07:33:43.906Z,48.31
2018-05-15T07:34:46.413Z,47.35
2018-05-15T07:35:48.917Z,47.04
2018-05-15T07:36:51.413Z,45.40
2018-05-15T07:37:53.897Z,45.06
2018-05-15T07:38:56.390Z,44.14
2018-05-15T07:40:00.710Z,43.83
2018-05-15T07:41:03.231Z,43.88
2018-05-15T07:42:05.747Z,44.00
2018-05-15T07:43:08.265Z,44.12
2018-05-15T07:44:10.783Z,44.23
2018-05-15T07:45:13.277Z,44.26
2018-05-15T07:46:15.792Z,44.24
2018-05-15T07:47:18.274Z,44.37
2018-05-15T07:48:20.822Z,44.49
2018-05-15T07:49:23.342Z,44.60
2018-05-15T07:50:25.837Z,44.76
2018-05-15T07:51:28.341Z,44.91
2018-05-15T07:52:30.843Z,45.00
2018-05-15T07:53:33.426Z,45.05
2018-05-15T07:54:35.890Z,45.37
2018-05-15T07:55:38.370Z,45.47
2018-05-15T07:56:41.767Z,45.53
2018-05-15T07:57:44.956Z,45.56
2018-05-15T07:58:48.870Z,45.64
2018-05-15T07:59:53.108Z,45.74
2018-05-15T08:00:57.088Z,45.84
2018-05-15T08:02:01.040Z,46.38
2018-05-15T08:03:03.770Z,46.56
2018-05-15T08:04:06.269Z,47.02
2018-05-15T08:05:08.799Z,47.56
2018-05-15T08:06:11.279Z,48.10
2018-05-15T08:07:13.769Z,49.28
2018-05-15T08:08:16.264Z,49.27
2018-05-15T08:09:18.743Z,49.39
2018-05-15T08:10:21.273Z,49.54
2018-05-15T08:11:23.750Z,49.61
2018-05-15T08:12:26.255Z,49.64
2018-05-15T08:13:28.748Z,49.63
2018-05-15T08:14:31.230Z,49.48
2018-05-15T08:15:33.722Z,49.12
2018-05-15T08:16:36.240Z,49.11
2018-05-15T08:17:38.752Z,49.12
2018-05-15T08:18:41.249Z,49.08
2018-05-15T08:19:43.731Z,49.10
2018-05-15T08:20:46.251Z,49.08
2018-05-15T08:21:48.739Z,48.95
2018-05-15T08:22:51.221Z,48.93
2018-05-15T08:23:53.702Z,48.87
2018-05-15T08:24:56.205Z,48.70
2018-05-15T08:25:58.732Z,48.50
2018-05-15T08:27:01.234Z,48.43
2018-05-15T08:28:03.734Z,48.44
2018-05-15T08:29:06.246Z,48.43
2018-05-15T08:30:08.755Z,48.43
2018-05-15T08:31:11.259Z,48.43
2018-05-15T08:32:13.749Z,48.43
2018-05-15T08:33:16.247Z,48.42
2018-05-15T08:34:18.729Z,48.43
2018-05-15T08:35:21.253Z,48.46
2018-05-15T08:36:23.766Z,48.49
2018-05-15T08:37:26.336Z,48.51
2018-05-15T08:38:28.866Z,48.51
2018-05-15T08:39:31.408Z,48.50
2018-05-15T08:40:33.920Z,48.47
2018-05-15T08:41:36.423Z,48.42
2018-05-15T08:42:38.922Z,48.42
2018-05-15T08:43:41.414Z,48.44
2018-05-15T08:44:43.924Z,48.46
2018-05-15T08:45:46.439Z,48.50
2018-05-15T08:46:48.972Z,48.53
2018-05-15T08:47:51.484Z,48.54
2018-05-15T08:48:53.973Z,48.55
2018-05-15T08:49:56.466Z,48.59
2018-05-15T08:50:58.946Z,48.61
2018-05-15T08:52:01.473Z,48.64
2018-05-15T08:53:03.966Z,48.71
2018-05-15T08:54:06.443Z,48.75
2018-05-15T08:55:08.957Z,48.76
2018-05-15T08:56:11.458Z,48.76
2018-05-15T08:57:13.987Z,48.77
2018-05-15T08:58:16.490Z,48.77
2018-05-15T08:59:18.999Z,48.78
2018-05-15T09:00:21.512Z,48.77
2018-05-15T09:01:24.012Z,48.79
2018-05-15T09:02:26.533Z,48.75
2018-05-15T09:03:29.043Z,48.77
2018-05-15T09:04:31.545Z,48.79
2018-05-15T09:05:34.023Z,48.82
2018-05-15T09:06:36.525Z,48.83
2018-05-15T09:07:39.054Z,48.81
2018-05-15T09:08:41.552Z,48.82
2018-05-15T09:09:44.067Z,48.82
2018-05-15T09:10:46.581Z,48.84
2018-05-15T09:11:49.091Z,48.86
2018-05-15T09:12:51.599Z,48.87
2018-05-15T09:13:54.090Z,48.87
2018-05-15T09:14:56.939Z,48.84
2018-05-15T09:15:59.583Z,48.86
2018-05-15T09:17:02.070Z,48.91
2018-05-15T09:18:04.612Z,48.93
2018-05-15T09:19:07.150Z,48.93
2018-05-15T09:20:09.659Z,48.86
2018-05-15T09:21:12.139Z,48.73
2018-05-15T09:22:14.639Z,48.71
2018-05-15T09:23:17.172Z,48.68
2018-05-15T09:24:19.665Z,48.68
2018-05-15T09:25:22.148Z,48.67
2018-05-15T09:26:24.676Z,48.66
2018-05-15T09:27:28.512Z,48.63
2018-05-15T09:28:31.176Z,48.55
2018-05-15T09:29:33.684Z,48.48
2018-05-15T09:30:36.177Z,48.48
2018-05-15T09:31:38.665Z,48.53
2018-05-15T09:32:41.169Z,48.62
2018-05-15T09:33:43.686Z,48.62
2018-05-15T09:34:46.209Z,48.58
2018-05-15T09:35:48.728Z,48.55
2018-05-15T09:36:51.233Z,48.50
2018-05-15T09:37:53.714Z,48.30
2018-05-15T09:38:56.233Z,48.25
2018-05-15T09:39:58.725Z,48.33
2018-05-15T09:41:01.199Z,48.39
2018-05-15T09:42:03.766Z,48.54
2018-05-15T09:43:06.281Z,48.62
2018-05-15T09:44:08.783Z,48.63
2018-05-15T09:45:11.277Z,48.65
2018-05-15T09:46:13.763Z,48.67
2018-05-15T09:47:16.268Z,48.67
2018-05-15T09:48:18.759Z,48.63
2018-05-15T09:49:21.287Z,48.65
2018-05-15T09:50:23.800Z,48.69
2018-05-15T09:51:26.296Z,48.69
2018-05-15T09:52:28.874Z,48.65
2018-05-15T09:53:31.367Z,48.66
2018-05-15T09:54:33.904Z,48.69
2018-05-15T09:55:36.395Z,48.70
2018-05-15T09:56:38.925Z,48.77
2018-05-15T09:57:41.450Z,48.74
2018-05-15T09:58:43.964Z,48.75
2018-05-15T09:59:46.473Z,48.77
2018-05-15T10:00:48.955Z,48.81
2018-05-15T10:01:51.434Z,48.83
2018-05-15T10:02:53.934Z,48.86
2018-05-15T10:03:56.426Z,48.87
2018-05-15T10:04:58.923Z,48.86
2018-05-15T10:06:01.421Z,48.88
2018-05-15T10:07:03.918Z,48.88
2018-05-15T10:08:06.452Z,48.86
2018-05-15T10:09:09.018Z,48.89
2018-05-15T10:10:11.555Z,48.91
2018-05-15T10:11:14.045Z,48.92
2018-05-15T10:12:16.523Z,48.93
2018-05-15T10:13:19.021Z,48.94
2018-05-15T10:14:21.517Z,48.94
2018-05-15T10:15:24.033Z,48.96
2018-05-15T10:16:26.529Z,48.97
2018-05-15T10:17:29.013Z,49.00
2018-05-15T10:18:31.512Z,49.02
2018-05-15T10:19:34.005Z,48.98
2018-05-15T10:20:36.504Z,48.95
2018-05-15T10:21:38.986Z,48.98
2018-05-15T10:22:41.485Z,49.01
2018-05-15T10:23:43.990Z,49.01
2018-05-15T10:24:46.504Z,48.99
2018-05-15T10:25:49.003Z,48.97
2018-05-15T10:26:51.501Z,48.94
2018-05-15T10:27:54.004Z,48.90
2018-05-15T10:28:56.557Z,48.87
2018-05-15T10:29:59.150Z,48.86
2018-05-15T10:31:01.614Z,48.84
2018-05-15T10:32:04.107Z,48.79
2018-05-15T10:33:06.587Z,48.77
2018-05-15T10:34:09.071Z,48.73
2018-05-15T10:35:11.573Z,48.67
2018-05-15T10:36:14.075Z,48.62
2018-05-15T10:37:16.636Z,48.61
2018-05-15T10:38:19.047Z,48.63
2018-05-15T10:39:21.523Z,48.63
2018-05-15T10:40:24.010Z,48.66
2018-05-15T10:41:26.502Z,48.64
2018-05-15T10:42:29.008Z,48.60
2018-05-15T10:43:31.486Z,48.36
2018-05-15T10:44:33.960Z,48.07
2018-05-15T10:45:36.463Z,48.00
2018-05-15T10:46:39.008Z,48.20
2018-05-15T10:47:41.499Z,48.34
2018-05-15T10:48:43.996Z,48.33
2018-05-15T10:49:46.490Z,48.20
2018-05-15T10:50:49.064Z,48.08
2018-05-15T10:51:51.514Z,47.98
2018-05-15T10:52:54.020Z,47.96
2018-05-15T10:53:56.537Z,47.94
2018-05-15T10:54:59.052Z,47.99
2018-05-15T10:56:01.564Z,48.13
2018-05-15T10:57:04.099Z,48.27
2018-05-15T10:58:06.616Z,48.36
2018-05-15T10:59:09.128Z,48.43
2018-05-15T11:00:11.620Z,48.44
2018-05-15T11:01:14.113Z,48.40
2018-05-15T11:02:16.903Z,48.33
2018-05-15T11:03:19.405Z,48.42
2018-05-15T11:04:21.897Z,48.65
2018-05-15T11:05:24.408Z,48.77
2018-05-15T11:06:26.883Z,48.85
2018-05-15T11:07:29.408Z,48.80
2018-05-15T11:08:31.909Z,48.71
2018-05-15T11:09:34.397Z,48.70
2018-05-15T11:10:36.908Z,48.72
2018-05-15T11:11:39.387Z,48.70
2018-05-15T11:12:42.108Z,48.68
2018-05-15T11:13:44.601Z,48.64
2018-05-15T11:14:47.089Z,48.72
2018-05-15T11:15:49.577Z,48.80
2018-05-15T11:16:52.088Z,48.83
2018-05-15T11:17:54.617Z,48.84
2018-05-15T11:18:57.091Z,48.77
2018-05-15T11:20:11.493Z,48.74
2018-05-15T11:21:25.863Z,48.72
2018-05-15T11:22:40.302Z,48.80
2018-05-15T11:25:21.886Z,48.83
2018-05-15T11:26:24.381Z,48.84
2018-05-15T11:27:26.897Z,48.81
2018-05-15T11:28:29.409Z,48.84
2018-05-15T11:29:31.890Z,48.84
2018-05-15T11:30:34.410Z,48.80
2018-05-15T11:31:36.917Z,48.78
2018-05-15T11:32:39.407Z,48.79
2018-05-15T11:33:41.921Z,48.80
2018-05-15T11:34:44.421Z,48.80
2018-05-15T11:35:47.008Z,48.79
2018-05-15T11:36:49.437Z,48.75
2018-05-15T11:37:51.926Z,48.78
2018-05-15T11:38:54.444Z,48.77
2018-05-15T11:39:56.942Z,48.69
2018-05-15T11:40:59.433Z,48.68
2018-05-15T11:42:01.925Z,48.69
2018-05-15T11:43:04.411Z,48.70
2018-05-15T11:44:06.917Z,48.71
2018-05-15T11:45:09.414Z,48.72
2018-05-15T11:46:11.923Z,48.76
2018-05-15T11:47:14.463Z,48.76
2018-05-15T11:48:17.361Z,48.79
2018-05-15T11:49:20.028Z,48.81
2018-05-15T11:50:22.765Z,48.81
2018-05-15T11:51:25.176Z,48.79
2018-05-15T11:52:27.403Z,48.76
2018-05-15T11:53:29.529Z,48.77
2018-05-15T11:54:32.065Z,48.75
2018-05-15T11:55:35.296Z,48.70
2018-05-15T11:56:37.089Z,48.64
2018-05-15T11:57:39.596Z,48.58
2018-05-15T11:58:42.106Z,48.64
2018-05-15T11:59:44.714Z,48.70
2018-05-15T12:00:47.197Z,48.74
2018-05-15T12:01:49.693Z,48.70
2018-05-15T12:02:52.183Z,48.62
2018-05-15T12:03:54.661Z,48.66
2018-05-15T12:04:57.161Z,48.76
2018-05-15T12:05:59.681Z,48.82
2018-05-15T12:07:02.167Z,48.86
2018-05-15T12:08:04.737Z,48.82
2018-05-15T12:09:07.205Z,48.70
2018-05-15T12:10:09.719Z,48.58
2018-05-15T12:11:12.235Z,48.38
2018-05-15T12:12:14.748Z,48.33
2018-05-15T12:13:17.262Z,48.46
2018-05-15T12:14:19.757Z,48.65
2018-05-15T12:15:22.287Z,48.52
2018-05-15T12:16:24.784Z,48.23
2018-05-15T12:17:27.277Z,48.08
2018-05-15T12:18:29.833Z,47.94
2018-05-15T12:19:32.261Z,47.73
2018-05-15T12:20:34.892Z,47.62
2018-05-15T12:21:37.383Z,47.49
2018-05-15T12:22:39.873Z,47.58
2018-05-15T12:23:42.776Z,47.68
2018-05-15T12:24:45.277Z,47.65
2018-05-15T12:25:47.814Z,47.71
2018-05-15T12:26:50.309Z,47.82
2018-05-15T12:27:52.791Z,47.83
2018-05-15T12:28:55.274Z,47.69
2018-05-15T12:29:57.825Z,47.59
2018-05-15T12:31:00.311Z,47.62
2018-05-15T12:32:02.791Z,47.69
2018-05-15T12:33:05.300Z,47.73
2018-05-15T12:34:07.803Z,47.79
2018-05-15T12:35:10.294Z,47.89
2018-05-15T12:36:12.822Z,47.99
2018-05-15T12:37:15.294Z,48.06
2018-05-15T12:38:17.773Z,48.16
2018-05-15T12:39:20.267Z,48.19
2018-05-15T12:40:22.753Z,48.21
2018-05-15T12:41:25.298Z,48.24
2018-05-15T12:42:27.877Z,48.28
2018-05-15T12:43:30.365Z,48.33
2018-05-15T12:44:32.889Z,48.40
2018-05-15T12:45:35.376Z,48.40
2018-05-15T12:46:37.911Z,48.41
2018-05-15T12:47:40.394Z,48.37
2018-05-15T12:48:43.003Z,48.28
2018-05-15T12:49:45.400Z,48.24
2018-05-15T12:50:47.912Z,48.24
2018-05-15T12:51:50.410Z,48.23
2018-05-15T12:52:52.900Z,48.29
2018-05-15T12:53:55.401Z,48.30
2018-05-15T12:54:57.983Z,48.28
2018-05-15T12:56:00.403Z,48.31
2018-05-15T12:57:03.812Z,48.33
2018-05-15T12:58:06.306Z,48.35
2018-05-15T12:59:08.798Z,48.34
2018-05-15T13:00:11.312Z,48.26
2018-05-15T13:01:13.811Z,48.22
2018-05-15T13:02:16.318Z,48.13
2018-05-15T13:03:18.895Z,48.16
2018-05-15T13:04:21.391Z,48.22
2018-05-15T13:05:23.866Z,48.27
2018-05-15T13:06:26.359Z,48.30
2018-05-15T13:07:28.914Z,48.33
2018-05-15T13:08:31.381Z,48.33
2018-05-15T13:09:33.877Z,48.34
2018-05-15T13:10:36.342Z,48.33
2018-05-15T13:11:38.822Z,48.34
2018-05-15T13:12:41.324Z,48.36
2018-05-15T13:13:43.817Z,48.36
2018-05-15T13:14:46.288Z,48.37
2018-05-15T13:15:48.811Z,48.38
2018-05-15T13:16:51.315Z,48.44
2018-05-15T13:17:53.835Z,48.48
2018-05-15T13:18:56.347Z,48.50
2018-05-15T13:19:58.845Z,48.53
2018-05-15T13:21:01.335Z,48.52
2018-05-15T13:22:03.889Z,48.51
2018-05-15T13:23:06.378Z,48.50
2018-05-15T13:24:08.847Z,48.49
2018-05-15T13:25:11.365Z,48.48
2018-05-15T13:26:13.847Z,48.46
2018-05-15T13:27:16.333Z,48.45
2018-05-15T13:28:18.823Z,48.47